Time;durP1;ratioP1;P1;durP2;ratioP2;P2;SDS_P1;SDS_P2;PMS_P1;PMS_P2;Temp;Humidity;BMP_temperature;BMP_pressure;BME280_temperature;BME280_humidity;BME280_pressure;Samples;Min_cycle;Max_cycle;Signal;HPM_P1;HPM_P2
2023/06/05 00:00:23;;;;;;;;;;;;;;;21.32;58.02;101386.38;7401577;19;1939;-45
2023/06/05 00:02:51;;;;;;;;;;;;;;;21.39;57.90;101376.78;7400930;19;1938;-45
2023/06/05 00:05:20;;;;;;;;;;;;;;;21.39;57.94;101368.69;7399786;19;1539;-45
2023/06/05 00:07:48;;;;;;;;;;;;;;;21.35;57.89;101356.50;7396928;19;1823;-45
2023/06/05 00:10:19;;;;;;;;;;;;;;;21.40;57.76;101369.53;7399971;19;1594;-44
2023/06/05 00:12:47;;;;;;;;;;;;;;;21.37;57.91;101375.22;7398091;19;1541;-45
2023/06/05 00:15:16;;;;;;;;;;;;;;;21.34;58.07;101370.09;7400026;19;1491;-45
2023/06/05 00:17:45;;;;;;;;;;;;;;;21.38;57.95;101376.91;7399489;19;1635;-45
2023/06/05 00:20:14;;;;;;;;;;;;;;;21.33;58.31;101363.88;7400156;19;1758;-45
2023/06/05 00:22:44;;;;;;;;;;;;;;;21.40;57.96;101375.75;7400607;19;1379;-45
2023/06/05 00:25:12;;;;;;;;;;;;;;;21.38;58.09;101366.97;7399289;19;1201;-45
2023/06/05 00:27:43;;;;;;;;;;;;;;;21.38;57.97;101353.53;7398182;19;1884;-45
2023/06/05 00:30:12;;;;;;;;;;;;;;;21.39;58.00;101352.56;7400019;19;1505;-45
2023/06/05 00:32:41;;;;;;;;;;;;;;;21.37;58.36;101364.44;7399583;19;1832;-45
2023/06/05 00:35:10;;;;;;;;;;;;;;;21.36;58.37;101368.13;7400315;19;1738;-45
2023/06/05 00:37:39;;;;;;;;;;;;;;;21.36;58.28;101363.56;7399103;19;1928;-45
2023/06/05 00:40:09;;;;;;;;;;;;;;;21.38;58.52;101372.34;7399108;19;1813;-44
2023/06/05 00:42:37;;;;;;;;;;;;;;;21.33;58.34;101366.56;7398373;19;1867;-45
2023/06/05 00:45:09;;;;;;;;;;;;;;;21.38;58.46;101364.28;7397677;19;1705;-45
2023/06/05 00:47:38;;;;;;;;;;;;;;;21.37;58.35;101364.44;7397201;19;1855;-45
2023/06/05 00:50:07;;;;;;;;;;;;;;;21.31;58.65;101370.34;7397027;19;1543;-45
2023/06/05 00:52:35;;;;;;;;;;;;;;;21.36;58.59;101365.41;7397995;19;1301;-46
2023/06/05 00:55:04;;;;;;;;;;;;;;;21.39;58.80;101374.09;7398493;19;1375;-45
2023/06/05 00:57:34;;;;;;;;;;;;;;;21.38;58.69;101383.13;7398826;19;1185;-45
2023/06/05 01:00:06;;;;;;;;;;;;;;;21.31;58.82;101360.47;7398886;19;1110;-45
2023/06/05 01:02:38;;;;;;;;;;;;;;;21.35;58.89;101364.59;7398281;19;1608;-45
2023/06/05 01:05:06;;;;;;;;;;;;;;;21.33;59.09;101381.81;7397858;19;1546;-45
2023/06/05 01:07:37;;;;;;;;;;;;;;;21.31;58.70;101364.97;7395595;19;1847;-45
2023/06/05 01:10:08;;;;;;;;;;;;;;;21.32;59.02;101372.91;7397876;19;1558;-45
2023/06/05 01:12:39;;;;;;;;;;;;;;;21.33;58.95;101382.69;7397851;19;1312;-45
2023/06/05 01:15:09;;;;;;;;;;;;;;;21.27;59.09;101375.19;7397116;19;1159;-45
2023/06/05 01:17:40;;;;;;;;;;;;;;;21.29;59.04;101383.97;7397954;19;1295;-45
2023/06/05 01:20:09;;;;;;;;;;;;;;;21.26;58.72;101373.47;7396978;19;1210;-45
2023/06/05 01:22:38;;;;;;;;;;;;;;;21.29;58.74;101370.50;7398428;19;1277;-45
2023/06/05 01:25:11;;;;;;;;;;;;;;;21.30;59.05;101364.13;7394601;19;1797;-45
2023/06/05 01:27:44;;;;;;;;;;;;;;;21.33;59.12;101374.63;7396543;19;1856;-45
2023/06/05 01:30:16;;;;;;;;;;;;;;;21.32;58.79;101372.91;7397186;19;1487;-45
2023/06/05 01:32:53;;;;;;;;;;;;;;;21.28;58.73;101371.47;7398758;19;1290;-45
2023/06/05 01:35:27;;;;;;;;;;;;;;;21.32;59.09;101389.06;7397635;19;1934;-45
2023/06/05 01:37:57;;;;;;;;;;;;;;;21.30;58.77;101374.88;7396299;19;1867;-45
2023/06/05 01:40:28;;;;;;;;;;;;;;;21.28;58.84;101378.72;7397336;19;1781;-45
2023/06/05 01:42:57;;;;;;;;;;;;;;;21.28;58.50;101386.78;7397048;19;1824;-45
2023/06/05 01:45:26;;;;;;;;;;;;;;;21.27;58.57;101377.88;7396430;19;1493;-45
2023/06/05 01:47:54;;;;;;;;;;;;;;;21.27;58.68;101380.56;7395442;19;1849;-45
2023/06/05 01:50:23;;;;;;;;;;;;;;;21.30;58.68;101385.66;7397615;19;1542;-45
2023/06/05 01:52:52;;;;;;;;;;;;;;;21.26;58.79;101381.53;7396282;19;1600;-45
2023/06/05 01:55:23;;;;;;;;;;;;;;;21.28;59.01;101378.72;7397708;19;1293;-44
2023/06/05 01:57:54;;;;;;;;;;;;;;;21.24;58.89;101386.19;7396885;19;1714;-45
2023/06/05 02:00:23;;;;;;;;;;;;;;;21.26;58.97;101411.13;7397245;19;1304;-45
2023/06/05 02:02:53;;;;;;;;;;;;;;;21.29;58.73;101393.84;7396038;19;1449;-45
2023/06/05 02:05:22;;;;;;;;;;;;;;;21.27;58.86;101415.53;7395375;19;1792;-45
2023/06/05 02:07:53;;;;;;;;;;;;;;;21.28;58.95;101401.06;7394561;19;1832;-45
2023/06/05 02:10:23;;;;;;;;;;;;;;;21.25;58.60;101393.28;7394495;19;1734;-44
2023/06/05 02:12:54;;;;;;;;;;;;;;;21.25;58.72;101393.28;7397233;19;1741;-45
2023/06/05 02:15:22;;;;;;;;;;;;;;;21.23;58.47;101403.34;7397592;19;1787;-45
2023/06/05 02:17:52;;;;;;;;;;;;;;;21.23;58.91;101406.88;7396483;19;1498;-45
2023/06/05 02:20:21;;;;;;;;;;;;;;;21.19;58.57;101400.06;7396106;19;1711;-45
2023/06/05 02:22:51;;;;;;;;;;;;;;;21.18;58.52;101398.34;7396156;19;1796;-45
2023/06/05 02:25:20;;;;;;;;;;;;;;;21.19;58.61;101405.44;7394686;19;1112;-45
2023/06/05 02:27:50;;;;;;;;;;;;;;;21.18;58.48;101397.50;7395588;19;1911;-45
2023/06/05 02:30:20;;;;;;;;;;;;;;;21.19;58.63;101410.81;7396005;19;1509;-45
2023/06/05 02:32:56;;;;;;;;;;;;;;;21.18;58.41;101424.38;7394174;19;1594;-45
2023/06/05 02:35:25;;;;;;;;;;;;;;;21.16;58.52;101410.22;7397566;19;1027;-45
2023/06/05 02:37:53;;;;;;;;;;;;;;;21.16;58.39;101404.84;7401682;19;1820;-45
2023/06/05 02:40:21;;;;;;;;;;;;;;;21.20;58.64;101420.56;7403239;19;1701;-45
2023/06/05 02:42:50;;;;;;;;;;;;;;;21.22;58.42;101418.59;7402989;19;1714;-45
2023/06/05 02:45:21;;;;;;;;;;;;;;;21.19;58.73;101416.19;7402115;19;1668;-45
2023/06/05 02:47:50;;;;;;;;;;;;;;;21.15;58.41;101408.50;7400427;19;1846;-45
2023/06/05 02:50:18;;;;;;;;;;;;;;;21.16;58.48;101410.22;7402832;19;1843;-45
2023/06/05 02:52:47;;;;;;;;;;;;;;;21.18;58.50;101419.00;7403474;19;1730;-45
2023/06/05 02:55:16;;;;;;;;;;;;;;;21.15;58.19;101425.50;7400124;19;1436;-45
2023/06/05 02:57:44;;;;;;;;;;;;;;;21.17;58.26;101428.91;7402206;19;1370;-45
2023/06/05 03:00:16;;;;;;;;;;;;;;;21.13;58.38;101405.09;7402967;19;1261;-45
2023/06/05 03:02:49;;;;;;;;;;;;;;;21.17;58.16;101404.72;7401320;19;1102;-45
2023/06/05 03:05:18;;;;;;;;;;;;;;;21.13;58.21;101423.94;7401990;19;1514;-45
2023/06/05 03:07:46;;;;;;;;;;;;;;;21.17;58.12;101418.16;7400413;19;1833;-45
2023/06/05 03:10:14;;;;;;;;;;;;;;;21.18;58.24;101410.94;7401934;19;1762;-44
2023/06/05 03:12:42;;;;;;;;;;;;;;;21.19;58.12;101410.81;7401657;19;1456;-45
2023/06/05 03:15:11;;;;;;;;;;;;;;;21.21;58.10;101408.00;7401661;19;1368;-45
2023/06/05 03:17:39;;;;;;;;;;;;;;;21.18;57.97;101410.94;7402015;19;1352;-44
2023/06/05 03:20:12;;;;;;;;;;;;;;;21.20;58.09;101403.59;7401254;19;1468;-44
2023/06/05 03:22:40;;;;;;;;;;;;;;;21.21;58.46;101408.00;7400873;19;1204;-44
2023/06/05 03:25:09;;;;;;;;;;;;;;;21.21;58.29;101405.31;7398240;19;1450;-45
2023/06/05 03:27:37;;;;;;;;;;;;;;;21.25;58.05;101409.44;7399774;19;1842;-45
2023/06/05 03:30:08;;;;;;;;;;;;;;;21.22;58.01;101415.06;7401603;19;1626;-45
2023/06/05 03:32:36;;;;;;;;;;;;;;;21.23;57.85;101428.38;7401150;19;1579;-45
2023/06/05 03:35:06;;;;;;;;;;;;;;;21.21;57.95;101416.06;7401586;19;1540;-45
2023/06/05 03:37:37;;;;;;;;;;;;;;;21.21;58.22;101414.22;7398400;19;1544;-45
2023/06/05 03:40:06;;;;;;;;;;;;;;;21.24;58.20;101405.03;7401109;19;1481;-45
2023/06/05 03:42:34;;;;;;;;;;;;;;;21.28;58.09;101414.53;7400836;19;1500;-45
2023/06/05 03:45:02;;;;;;;;;;;;;;;21.33;58.04;101408.72;7400953;19;1524;-45
2023/06/05 03:47:34;;;;;;;;;;;;;;;21.29;58.37;101410.88;7397060;19;1844;-44
2023/06/05 03:50:03;;;;;;;;;;;;;;;21.35;58.17;101399.56;7401842;19;1788;-44
2023/06/05 03:52:31;;;;;;;;;;;;;;;21.51;57.99;101406.31;7400712;19;1797;-44
2023/06/05 03:55:04;;;;;;;;;;;;;;;21.53;57.79;101413.25;7401405;19;1534;-44
2023/06/05 03:57:32;;;;;;;;;;;;;;;21.63;57.79;101399.81;7401517;19;1714;-45
2023/06/05 04:00:01;;;;;;;;;;;;;;;21.62;57.75;101411.56;7400352;19;2062;-44
2023/06/05 04:02:30;;;;;;;;;;;;;;;21.64;57.58;101393.44;7399876;19;1340;-45
2023/06/05 04:04:58;;;;;;;;;;;;;;;21.75;57.76;101408.63;7398727;19;1816;-46
2023/06/05 04:07:26;;;;;;;;;;;;;;;21.69;57.83;101407.34;7395078;19;1853;-47
2023/06/05 04:09:55;;;;;;;;;;;;;;;21.72;57.59;101411.59;7398617;19;1199;-48
2023/06/05 04:12:26;;;;;;;;;;;;;;;21.90;57.69;101401.00;7399628;19;1524;-47
2023/06/05 04:14:54;;;;;;;;;;;;;;;21.89;57.64;101407.41;7334484;19;12480;-47
2023/06/05 04:17:22;;;;;;;;;;;;;;;22.01;57.61;101408.97;7400226;19;1254;-46
2023/06/05 04:19:50;;;;;;;;;;;;;;;22.01;57.55;101406.28;7397963;19;1510;-47
2023/06/05 04:22:19;;;;;;;;;;;;;;;22.05;57.80;101407.69;7397815;19;1507;-48
2023/06/05 04:24:47;;;;;;;;;;;;;;;22.04;57.75;101411.38;7396377;19;1430;-47
2023/06/05 04:27:16;;;;;;;;;;;;;;;21.99;58.02;101405.56;7398491;19;1875;-48
2023/06/05 04:29:49;;;;;;;;;;;;;;;21.98;58.67;101402.00;7398296;19;1626;-47
2023/06/05 04:32:17;;;;;;;;;;;;;;;22.07;58.25;101404.88;7396900;19;1441;-47
2023/06/05 04:34:45;;;;;;;;;;;;;;;22.05;58.41;101415.78;7398382;19;1442;-47
2023/06/05 04:37:14;;;;;;;;;;;;;;;21.97;58.71;101402.16;7397578;19;1283;-47
2023/06/05 04:39:43;;;;;;;;;;;;;;;22.05;58.58;101402.31;7398606;19;1492;-47
2023/06/05 04:42:12;;;;;;;;;;;;;;;21.96;58.71;101397.75;7399353;19;1599;-47
2023/06/05 04:44:40;;;;;;;;;;;;;;;21.80;59.65;101409.06;7398167;19;1541;-48
2023/06/05 04:47:11;;;;;;;;;;;;;;;21.78;59.30;101405.66;7399247;19;1849;-47
2023/06/05 04:49:39;;;;;;;;;;;;;;;21.68;59.62;101400.25;7397907;19;1537;-48
2023/06/05 04:52:08;;;;;;;;;;;;;;;21.53;59.35;101407.88;7397088;19;1367;-47
2023/06/05 04:54:36;;;;;;;;;;;;;;;21.52;59.38;101408.00;7399053;19;1840;-45
2023/06/05 04:57:05;;;;;;;;;;;;;;;21.39;59.99;101409.06;7395021;19;1857;-45
2023/06/05 04:59:34;;;;;;;;;;;;;;;21.20;59.61;101411.66;7390134;19;1332;-45
2023/06/05 05:02:02;;;;;;;;;;;;;;;21.17;59.59;101409.22;7393917;19;1394;-45
2023/06/05 05:04:33;;;;;;;;;;;;;;;21.23;59.47;101398.78;7392190;19;1162;-45
2023/06/05 05:07:02;;;;;;;;;;;;;;;21.37;59.27;101402.13;7393076;19;1475;-45
2023/06/05 05:09:30;;;;;;;;;;;;;;;21.35;59.21;101393.34;7392636;19;1867;-45
2023/06/05 05:11:58;;;;;;;;;;;;;;;21.44;58.99;101393.38;7394000;19;982;-45
2023/06/05 05:14:27;;;;;;;;;;;;;;;21.42;59.25;101389.94;7393699;19;1927;-45
2023/06/05 05:16:56;;;;;;;;;;;;;;;21.34;59.67;101389.75;7393320;19;1818;-45
2023/06/05 05:19:24;;;;;;;;;;;;;;;21.33;59.60;101384.50;7393271;19;1880;-45
2023/06/05 05:21:55;;;;;;;;;;;;;;;21.30;59.91;101398.25;7393115;19;1742;-45
2023/06/05 05:24:24;;;;;;;;;;;;;;;21.33;59.96;101395.28;7390988;19;1458;-45
2023/06/05 05:26:53;;;;;;;;;;;;;;;21.29;59.83;101397.41;7396969;19;1719;-45
2023/06/05 05:29:21;;;;;;;;;;;;;;;21.29;59.85;101402.78;7395788;19;1884;-45
2023/06/05 05:31:50;;;;;;;;;;;;;;;21.28;59.89;101395.69;7397934;19;1039;-45
2023/06/05 05:34:19;;;;;;;;;;;;;;;21.27;60.23;101391.31;7396122;19;1505;-45
2023/06/05 05:36:47;;;;;;;;;;;;;;;21.29;60.23;101389.34;7397408;19;1463;-45
2023/06/05 05:39:18;;;;;;;;;;;;;;;21.30;60.46;101412.53;7394958;19;1226;-45
2023/06/05 05:41:46;;;;;;;;;;;;;;;21.44;60.10;101411.38;7396512;19;1563;-45
2023/06/05 05:44:14;;;;;;;;;;;;;;;21.56;59.80;101414.81;7396156;19;1162;-45
2023/06/05 05:46:43;;;;;;;;;;;;;;;21.48;60.11;101406.56;7396951;19;1257;-45
2023/06/05 05:49:11;;;;;;;;;;;;;;;21.76;59.44;101404.94;7390817;19;1944;-48
2023/06/05 05:51:40;;;;;;;;;;;;;;;21.94;59.13;101410.50;7397149;19;1555;-47
2023/06/05 05:54:08;;;;;;;;;;;;;;;21.89;59.04;101412.78;7396374;19;1795;-48
2023/06/05 05:56:39;;;;;;;;;;;;;;;21.96;59.15;101414.75;7394354;19;1802;-47
2023/06/05 05:59:07;;;;;;;;;;;;;;;21.92;59.18;101416.03;7395882;19;1763;-48
2023/06/05 06:01:35;;;;;;;;;;;;;;;21.77;60.22;101407.50;7395945;19;1537;-49
2023/06/05 06:04:04;;;;;;;;;;;;;;;21.98;59.77;101423.53;7395464;19;1824;-48
2023/06/05 06:06:33;;;;;;;;;;;;;;;22.17;59.43;101401.19;7395544;19;1849;-47
2023/06/05 06:09:02;;;;;;;;;;;;;;;22.18;59.76;101410.09;7393631;19;1889;-48
2023/06/05 06:11:30;;;;;;;;;;;;;;;22.25;59.42;101411.28;7393540;19;1237;-47
2023/06/05 06:14:01;;;;;;;;;;;;;;;22.23;59.81;101411.38;7394060;19;1470;-47
2023/06/05 06:16:29;;;;;;;;;;;;;;;22.23;59.84;101411.38;7394514;19;1388;-48
2023/06/05 06:18:58;;;;;;;;;;;;;;;22.29;59.50;101409.16;7396554;19;1597;-48
2023/06/05 06:21:26;;;;;;;;;;;;;;;22.49;59.23;101413.53;7394068;19;1425;-45
2023/06/05 06:23:54;;;;;;;;;;;;;;;22.41;59.68;101408.03;7387023;19;1364;-44
2023/06/05 06:26:23;;;;;;;;;;;;;;;22.15;61.40;101419.31;7393622;19;1401;-44
2023/06/05 06:28:51;;;;;;;;;;;;;;;22.30;60.82;101414.38;7391171;19;1873;-45
2023/06/05 06:31:22;;;;;;;;;;;;;;;22.35;61.13;101405.91;7395481;19;2000;-44
2023/06/05 06:33:50;;;;;;;;;;;;;;;22.41;60.67;101408.88;7395272;19;1509;-44
2023/06/05 06:36:19;;;;;;;;;;;;;;;22.32;61.28;101415.13;7395951;19;1793;-44
2023/06/05 06:38:48;;;;;;;;;;;;;;;22.35;61.52;101406.75;7395467;19;1341;-45
2023/06/05 06:41:16;;;;;;;;;;;;;;;22.27;60.97;101394.97;7396389;19;1833;-44
2023/06/05 06:43:44;;;;;;;;;;;;;;;22.23;62.46;101400.59;7394493;19;1475;-44
2023/06/05 06:46:13;;;;;;;;;;;;;;;22.13;62.88;101391.69;7392870;19;1339;-50
2023/06/05 06:48:44;;;;;;;;;;;;;;;22.27;62.62;101397.69;7383409;19;1855;-48
2023/06/05 06:51:12;;;;;;;;;;;;;;;22.51;61.50;101402.63;7385127;19;1501;-48
2023/06/05 06:53:41;;;;;;;;;;;;;;;22.35;62.98;101409.44;7390167;19;1490;-48
2023/06/05 06:56:09;;;;;;;;;;;;;;;22.28;63.55;101407.44;7391327;19;1590;-48
2023/06/05 06:58:38;;;;;;;;;;;;;;;22.31;63.09;101410.72;7392707;19;1316;-46
2023/06/05 07:01:06;;;;;;;;;;;;;;;22.56;62.70;101395.81;7389309;19;1622;-46
2023/06/05 07:03:35;;;;;;;;;;;;;;;22.38;62.86;101398.38;7393839;19;1233;-45
2023/06/05 07:06:06;;;;;;;;;;;;;;;22.61;62.46;101417.78;7386275;19;1875;-46
2023/06/05 07:08:34;;;;;;;;;;;;;;;22.58;62.06;101403.75;7388899;19;1848;-45
2023/06/05 07:11:03;;;;;;;;;;;;;;;22.55;61.86;101415.66;7388864;19;1305;-45
2023/06/05 07:13:31;;;;;;;;;;;;;;;22.50;62.40;101406.31;7386681;19;1532;-46
2023/06/05 07:15:59;;;;;;;;;;;;;;;22.64;61.38;101412.13;7388446;19;1664;-46
2023/06/05 07:18:27;;;;;;;;;;;;;;;22.67;61.30;101402.88;7387916;19;1489;-46
2023/06/05 07:20:56;;;;;;;;;;;;;;;22.70;61.09;101409.81;7388660;19;1401;-46
2023/06/05 07:23:27;;;;;;;;;;;;;;;22.68;61.06;101415.38;7398072;19;1384;-46
2023/06/05 07:25:56;;;;;;;;;;;;;;;22.44;60.62;101396.94;7401449;19;1570;-46
2023/06/05 07:28:25;;;;;;;;;;;;;;;22.34;61.10;101413.13;7399610;19;1861;-46
2023/06/05 07:30:53;;;;;;;;;;;;;;;22.45;61.02;101409.44;7401544;19;1586;-46
2023/06/05 07:33:22;;;;;;;;;;;;;;;22.68;60.18;101439.66;7402883;19;1404;-46
2023/06/05 07:35:50;;;;;;;;;;;;;;;22.66;60.60;101403.03;7400677;19;1440;-45
2023/06/05 07:38:18;;;;;;;;;;;;;;;22.70;60.32;101407.13;7401118;19;1850;-46
2023/06/05 07:40:49;;;;;;;;;;;;;;;22.46;61.02;101411.13;7400449;19;1567;-46
2023/06/05 07:43:17;;;;;;;;;;;;;;;22.38;61.21;101408.28;7398641;19;1597;-46
2023/06/05 07:45:46;;;;;;;;;;;;;;;22.35;61.81;101408.59;7399479;19;1383;-46
2023/06/05 07:48:14;;;;;;;;;;;;;;;22.27;61.21;101392.28;7397936;19;1842;-45
2023/06/05 07:50:42;;;;;;;;;;;;;;;22.33;60.41;101400.66;7399933;19;1711;-45
2023/06/05 07:53:11;;;;;;;;;;;;;;;22.39;60.66;101410.00;7399642;19;1494;-46
2023/06/05 07:55:39;;;;;;;;;;;;;;;22.32;61.14;101417.81;7401075;19;1811;-46
2023/06/05 07:58:10;;;;;;;;;;;;;;;22.27;61.21;101421.94;7399879;19;1479;-45
2023/06/05 08:00:38;;;;;;;;;;;;;;;22.25;61.40;101424.75;7399704;19;1117;-46
2023/06/05 08:03:06;;;;;;;;;;;;;;;22.20;60.89;101409.00;7400610;19;1790;-46
2023/06/05 08:05:35;;;;;;;;;;;;;;;22.16;61.29;101410.28;7399255;19;1751;-46
2023/06/05 08:08:04;;;;;;;;;;;;;;;22.14;61.34;101411.38;7398918;19;1526;-47
2023/06/05 08:10:32;;;;;;;;;;;;;;;22.12;61.36;101398.03;7397895;19;1843;-46
2023/06/05 08:13:00;;;;;;;;;;;;;;;22.11;61.72;101399.06;7399467;19;1723;-45
2023/06/05 08:15:31;;;;;;;;;;;;;;;22.14;61.78;101390.66;7398958;19;1739;-46
2023/06/05 08:17:59;;;;;;;;;;;;;;;22.13;61.66;101383.59;7398876;19;1798;-46
2023/06/05 08:20:28;;;;;;;;;;;;;;;22.12;61.53;101384.56;7398345;19;1763;-46
2023/06/05 08:22:57;;;;;;;;;;;;;;;22.10;61.87;101373.09;7398042;19;1383;-46
2023/06/05 08:25:26;;;;;;;;;;;;;;;22.16;61.70;101366.28;7397906;19;1122;-46
2023/06/05 08:27:54;;;;;;;;;;;;;;;22.16;61.63;101363.59;7399147;19;1874;-45
2023/06/05 08:30:23;;;;;;;;;;;;;;;22.14;61.69;101360.19;7398088;19;1854;-46
2023/06/05 08:32:53;;;;;;;;;;;;;;;22.17;61.53;101371.53;7398689;19;1023;-46
2023/06/05 08:35:22;;;;;;;;;;;;;;;22.11;61.47;101357.81;7397518;19;1865;-45
2023/06/05 08:37:50;;;;;;;;;;;;;;;22.10;61.70;101367.69;7399407;19;1813;-45
2023/06/05 08:40:19;;;;;;;;;;;;;;;22.06;61.70;101339.34;7398679;19;1787;-46
2023/06/05 08:42:48;;;;;;;;;;;;;;;22.05;61.57;101353.81;7398208;19;1778;-46
2023/06/05 08:45:16;;;;;;;;;;;;;;;22.10;61.68;101373.09;7398852;19;1023;-46
2023/06/05 08:47:45;;;;;;;;;;;;;;;22.08;61.77;101369.69;7398182;19;1941;-46
2023/06/05 08:50:16;;;;;;;;;;;;;;;22.07;61.76;101367.16;7397537;19;1867;-46
2023/06/05 08:52:45;;;;;;;;;;;;;;;22.09;61.69;101371.41;7398473;19;1400;-46
2023/06/05 08:55:14;;;;;;;;;;;;;;;22.11;61.40;101377.50;7396893;19;1837;-45
2023/06/05 08:57:43;;;;;;;;;;;;;;;22.13;61.45;101374.69;7399249;19;1459;-46
2023/06/05 09:00:14;;;;;;;;;;;;;;;22.15;61.29;101362.75;7397955;19;1052;-46
2023/06/05 09:02:47;;;;;;;;;;;;;;;22.17;61.00;101363.47;7399689;19;1482;-45
2023/06/05 09:05:18;;;;;;;;;;;;;;;22.12;60.80;101368.41;7395617;19;1849;-46
2023/06/05 09:07:47;;;;;;;;;;;;;;;22.15;60.64;101373.53;7395568;19;1376;-46
2023/06/05 09:10:25;;;;;;;;;;;;;;;22.11;60.97;101373.97;7397058;19;1842;-46
2023/06/05 09:12:57;;;;;;;;;;;;;;;22.13;61.21;101374.69;7399498;19;1062;-45
2023/06/05 09:15:27;;;;;;;;;;;;;;;22.12;60.87;101367.56;7398549;19;1954;-46
2023/06/05 09:18:05;;;;;;;;;;;;;;;22.10;60.48;101366.88;7398492;19;1878;-46
2023/06/05 09:20:37;;;;;;;;;;;;;;;22.11;60.34;101382.88;7397587;19;1506;-45
2023/06/05 09:23:06;;;;;;;;;;;;;;;22.16;60.06;101385.16;7397540;19;1957;-45
2023/06/05 09:25:48;;;;;;;;;;;;;;;22.13;60.14;101388.97;7396637;19;1842;-45
2023/06/05 09:28:17;;;;;;;;;;;;;;;22.08;59.55;101361.59;7398472;19;1809;-46
2023/06/05 09:30:59;;;;;;;;;;;;;;;22.09;59.59;101363.31;7396650;19;1841;-46
2023/06/05 09:33:28;;;;;;;;;;;;;;;22.09;59.32;101371.41;7396645;19;1473;-45
2023/06/05 09:36:09;;;;;;;;;;;;;;;22.10;59.00;101377.63;7397706;19;1207;-46
2023/06/05 09:38:38;;;;;;;;;;;;;;;22.08;59.09;101375.06;7397035;19;1836;-46
2023/06/05 09:41:07;;;;;;;;;;;;;;;22.09;58.88;101390.25;7397693;19;1854;-45
2023/06/05 09:43:36;;;;;;;;;;;;;;;22.08;59.47;101372.38;7397355;19;1925;-46
2023/06/05 09:46:11;;;;;;;;;;;;;;;22.06;59.40;101377.06;7395451;19;1758;-46
2023/06/05 09:48:40;;;;;;;;;;;;;;;22.06;59.68;101355.50;7398348;19;1813;-45
2023/06/05 09:51:14;;;;;;;;;;;;;;;22.04;59.57;101346.72;7394852;19;1885;-46
2023/06/05 09:53:46;;;;;;;;;;;;;;;22.06;59.82;101350.13;7397973;19;1805;-46
2023/06/05 09:56:16;;;;;;;;;;;;;;;22.08;59.73;101352.69;7395642;19;1448;-46
2023/06/05 09:58:48;;;;;;;;;;;;;;;22.08;59.82;101350.84;7396853;19;1727;-45
2023/06/05 10:01:17;;;;;;;;;;;;;;;22.05;59.83;101351.13;7396189;19;1793;-45
2023/06/05 10:03:50;;;;;;;;;;;;;;;22.02;59.50;101349.59;7396354;19;1051;-46
2023/06/05 10:06:23;;;;;;;;;;;;;;;22.03;59.68;101351.28;7396239;19;1875;-46
2023/06/05 10:08:52;;;;;;;;;;;;;;;22.00;59.87;101350.69;7396404;19;1917;-46
2023/06/05 10:11:22;;;;;;;;;;;;;;;22.02;59.92;101354.97;7397026;19;1459;-45
2023/06/05 10:13:50;;;;;;;;;;;;;;;22.05;59.69;101353.81;7397006;19;1503;-46
2023/06/05 10:16:19;;;;;;;;;;;;;;;22.03;59.56;101358.50;7396411;19;1371;-46
2023/06/05 10:18:48;;;;;;;;;;;;;;;22.01;59.68;101342.47;7396052;19;1810;-45
2023/06/05 10:21:17;;;;;;;;;;;;;;;22.00;59.76;101339.91;7395398;19;1794;-45
2023/06/05 10:23:50;;;;;;;;;;;;;;;22.04;59.76;101347.59;7395280;19;1707;-46
2023/06/05 10:26:25;;;;;;;;;;;;;;;21.97;59.84;101340.22;7396746;19;1822;-45
2023/06/05 10:29:01;;;;;;;;;;;;;;;21.99;59.90;101327.47;7396846;19;1692;-46
2023/06/05 10:31:37;;;;;;;;;;;;;;;22.02;59.59;101346.88;7397017;19;1724;-46
2023/06/05 10:34:15;;;;;;;;;;;;;;;22.01;59.75;101336.25;7397325;19;1047;-46
2023/06/05 10:37:01;;;;;;;;;;;;;;;21.97;59.58;101319.53;7397150;19;1072;-45
2023/06/05 10:39:34;;;;;;;;;;;;;;;22.00;59.84;101319.25;7397512;19;1790;-46
2023/06/05 10:42:02;;;;;;;;;;;;;;;21.94;59.78;101308.19;7397165;19;1062;-46
2023/06/05 10:44:40;;;;;;;;;;;;;;;21.90;58.98;101320.22;7396853;19;1862;-45
2023/06/05 10:47:23;;;;;;;;;;;;;;;21.95;58.41;101310.72;7395669;19;1941;-45
2023/06/05 10:50:07;;;;;;;;;;;;;;;22.24;57.41;101310.75;7395147;19;1829;-46
2023/06/05 10:52:38;;;;;;;;;;;;;;;22.20;56.69;101309.31;7396509;19;1869;-45
2023/06/05 10:55:10;;;;;;;;;;;;;;;22.23;57.10;101310.88;7396326;19;1858;-46
2023/06/05 10:57:53;;;;;;;;;;;;;;;22.08;57.69;101314.97;7399757;19;1889;-46
2023/06/05 11:00:21;;;;;;;;;;;;;;;22.12;57.06;101298.38;7402989;19;1909;-46
2023/06/05 11:02:51;;;;;;;;;;;;;;;22.08;57.28;101312.28;7401881;19;1522;-46
2023/06/05 11:05:19;;;;;;;;;;;;;;;22.02;56.86;101284.06;7402956;19;1483;-46
2023/06/05 11:07:47;;;;;;;;;;;;;;;22.07;56.98;101297.13;7401782;19;1563;-46
2023/06/05 11:10:20;;;;;;;;;;;;;;;22.04;57.69;101300.94;7402004;19;1881;-46
2023/06/05 11:13:01;;;;;;;;;;;;;;;22.13;57.46;101308.19;7403135;19;1825;-46
2023/06/05 11:15:43;;;;;;;;;;;;;;;22.03;57.94;101285.78;7402963;19;1739;-45
2023/06/05 11:18:26;;;;;;;;;;;;;;;22.00;58.25;101284.25;7403062;19;1828;-45
2023/06/05 11:20:54;;;;;;;;;;;;;;;22.02;58.37;101286.78;7402292;19;1810;-46
2023/06/05 11:23:27;;;;;;;;;;;;;;;22.24;57.01;101299.97;7401792;19;1419;-46
2023/06/05 11:26:01;;;;;;;;;;;;;;;22.39;56.09;101288.75;7402211;19;1735;-45
2023/06/05 11:28:45;;;;;;;;;;;;;;;22.60;56.14;101285.84;7401763;19;1043;-46
2023/06/05 11:31:13;;;;;;;;;;;;;;;22.49;56.25;101286.88;7398428;19;1889;-46
2023/06/05 11:33:42;;;;;;;;;;;;;;;22.48;55.83;101279.78;7403138;19;937;-45
2023/06/05 11:36:11;;;;;;;;;;;;;;;22.48;56.22;101290.56;7402321;19;1949;-45
2023/06/05 11:38:40;;;;;;;;;;;;;;;22.49;56.21;101280.66;7402162;19;1633;-45
2023/06/05 11:41:11;;;;;;;;;;;;;;;22.50;55.88;101276.94;7402430;19;1711;-45
2023/06/05 11:43:46;;;;;;;;;;;;;;;22.45;56.42;101285.47;7401695;19;1479;-45
2023/06/05 11:46:14;;;;;;;;;;;;;;;22.42;56.51;101280.34;7399311;19;1206;-46
2023/06/05 11:48:46;;;;;;;;;;;;;;;22.44;56.06;101270.28;7400314;19;1540;-46
2023/06/05 11:51:15;;;;;;;;;;;;;;;22.42;55.83;101265.06;7398631;19;1858;-46
2023/06/05 11:53:48;;;;;;;;;;;;;;;22.27;56.34;101260.28;7401873;19;1474;-45
2023/06/05 11:56:21;;;;;;;;;;;;;;;22.56;56.52;101308.69;7398737;19;1379;-45
2023/06/05 11:58:49;;;;;;;;;;;;;;;;;;7400643;19;1909;-45
2023/06/05 12:01:17;;;;;;;;;;;;;;;;;;7399839;19;1718;-45
2023/06/05 12:03:46;;;;;;;;;;;;;;;22.31;57.44;101299.41;7400201;19;980;-46
2023/06/05 12:06:15;;;;;;;;;;;;;;;22.31;57.69;101272.47;7400245;19;1894;-46
2023/06/05 12:08:44;;;;;;;;;;;;;;;22.19;57.01;101285.22;7396959;19;1588;-45
2023/06/05 12:11:25;;;;;;;;;;;;;;;22.26;57.79;101280.13;7396939;19;1858;-45
2023/06/05 12:13:54;;;;;;;;;;;;;;;22.19;57.26;101279.81;7395715;19;1443;-45
2023/06/05 12:16:23;;;;;;;;;;;;;;;22.23;58.26;101273.16;7398784;19;1533;-45
2023/06/05 12:18:51;;;;;;;;;;;;;;;22.33;57.26;101274.00;7398940;19;1718;-45
2023/06/05 12:21:23;;;;;;;;;;;;;;;22.19;57.25;101274.44;7393133;19;1221;-46
2023/06/05 12:23:52;;;;;;;;;;;;;;;22.37;56.71;101271.88;7394185;19;1577;-45
2023/06/05 12:26:20;;;;;;;;;;;;;;;22.34;56.62;101277.53;7398526;19;1731;-45
2023/06/05 12:28:51;;;;;;;;;;;;;;;22.19;56.24;101264.50;7399862;19;1475;-45
2023/06/05 12:31:35;;;;;;;;;;;;;;;22.26;56.87;101247.78;7392882;19;1886;-45
2023/06/05 12:34:04;;;;;;;;;;;;;;;22.30;56.02;101260.81;7397889;19;1481;-45
2023/06/05 12:36:34;;;;;;;;;;;;;;;22.49;55.72;101249.13;7395485;19;1230;-45
2023/06/05 12:39:10;;;;;;;;;;;;;;;22.61;55.38;101258.75;7390094;19;1633;-49
2023/06/05 12:41:39;;;;;;;;;;;;;;;22.47;55.11;101239.50;7397901;19;1387;-48
2023/06/05 12:44:10;;;;;;;;;;;;;;;22.37;53.89;101255.72;7397809;19;1338;-49
2023/06/05 12:46:38;;;;;;;;;;;;;;;22.53;56.25;101245.16;7398612;19;1051;-49
2023/06/05 12:49:07;;;;;;;;;;;;;;;22.57;53.33;101245.72;7395993;19;1479;-49
2023/06/05 12:51:36;;;;;;;;;;;;;;;22.66;55.00;101238.56;7392863;19;1948;-46
2023/06/05 12:54:04;;;;;;;;;;;;;;;22.68;54.66;101242.84;7395754;19;1475;-46
2023/06/05 12:56:34;;;;;;;;;;;;;;;22.66;55.60;101241.28;7396250;19;1759;-46
2023/06/05 12:59:03;;;;;;;;;;;;;;;22.87;54.91;101232.97;7396715;19;1719;-46
2023/06/05 13:01:36;;;;;;;;;;;;;;;22.64;55.51;101242.28;7395545;19;1621;-46